In Rescue
 
Open Full Screen Window  High Contrast Mode
Wind Gusting 00 knots
08
March 19, 2019 6:28 PM CDT
Weather Information
Wind Direction
  220 °
Wind Speed
  08 kt (9 mph)
Wind Gust
  00 kt (0 mph)
Variable Wind
200°
300°
Altimeter
30.17 in
Visibility
10 SM
Temperature
05° C
41° F
Dewpoint
00° C
32° F
Humidity
70%
1hr Rain Fall
00.00 in.
24hr Rain Fall
00.00 in.
Sky Condition
Clear
VFR

METAR KCNB 192328Z AUTO 22008KT 200V300 10SM CLR 05/00 A3017 RMK AO2 T00510000

FAA Disclaimer: The data displayed is for advisory purposes only and is not to be used for flight planning or operations.